sensor_id;sensor_type;location;lat;lon;timestamp;temperature;humidity
41722;DHT22;27407;24.142;-110.310;2023-07-24T00:02:22;34.20;99.90
41722;DHT22;27407;24.142;-110.310;2023-07-24T00:04:49;34.10;99.90
41722;DHT22;27407;24.142;-110.310;2023-07-24T00:07:16;34.10;99.90
41722;DHT22;27407;24.142;-110.310;2023-07-24T00:09:42;34.30;99.90
41722;DHT22;27407;24.142;-110.310;2023-07-24T00:12:09;34.00;99.90
41722;DHT22;27407;24.142;-110.310;2023-07-24T00:14:36;34.00;99.90
41722;DHT22;27407;24.142;-110.310;2023-07-24T00:17:02;34.00;99.90
41722;DHT22;27407;24.142;-110.310;2023-07-24T00:19:29;33.90;99.90
41722;DHT22;27407;24.142;-110.310;2023-07-24T00:21:55;33.90;99.90
41722;DHT22;27407;24.142;-110.310;2023-07-24T00:24:22;34.10;99.90
41722;DHT22;27407;24.142;-110.310;2023-07-24T00:26:49;34.20;99.90
41722;DHT22;27407;24.142;-110.310;2023-07-24T00:29:15;34.20;99.90
41722;DHT22;27407;24.142;-110.310;2023-07-24T00:31:42;34.20;99.90
41722;DHT22;27407;24.142;-110.310;2023-07-24T00:34:08;34.20;99.90
41722;DHT22;27407;24.142;-110.310;2023-07-24T00:36:35;34.30;99.90
41722;DHT22;27407;24.142;-110.310;2023-07-24T00:39:02;34.30;99.90
41722;DHT22;27407;24.142;-110.310;2023-07-24T00:41:28;34.40;99.90
41722;DHT22;27407;24.142;-110.310;2023-07-24T00:43:55;34.50;99.90
41722;DHT22;27407;24.142;-110.310;2023-07-24T00:46:22;34.60;99.90
41722;DHT22;27407;24.142;-110.310;2023-07-24T00:48:50;34.80;99.90
41722;DHT22;27407;24.142;-110.310;2023-07-24T00:51:17;34.80;99.90
41722;DHT22;27407;24.142;-110.310;2023-07-24T00:53:44;34.90;99.90
41722;DHT22;27407;24.142;-110.310;2023-07-24T00:56:13;35.00;99.90
41722;DHT22;27407;24.142;-110.310;2023-07-24T00:58:40;35.10;99.90
41722;DHT22;27407;24.142;-110.310;2023-07-24T01:01:07;35.20;99.90
41722;DHT22;27407;24.142;-110.310;2023-07-24T01:03:35;35.20;99.90
41722;DHT22;27407;24.142;-110.310;2023-07-24T01:06:02;35.10;99.90
41722;DHT22;27407;24.142;-110.310;2023-07-24T01:08:29;34.80;99.90
41722;DHT22;27407;24.142;-110.310;2023-07-24T01:11:36;34.90;99.90
41722;DHT22;27407;24.142;-110.310;2023-07-24T01:14:22;34.70;99.90
41722;DHT22;27407;24.142;-110.310;2023-07-24T01:16:50;35.00;99.90
41722;DHT22;27407;24.142;-110.310;2023-07-24T01:19:38;34.90;99.90
41722;DHT22;27407;24.142;-110.310;2023-07-24T01:25:04;34.30;99.90
41722;DHT22;27407;24.142;-110.310;2023-07-24T01:27:32;34.30;99.90
41722;DHT22;27407;24.142;-110.310;2023-07-24T01:29:59;34.10;99.90
41722;DHT22;27407;24.142;-110.310;2023-07-24T01:32:26;34.00;99.90
41722;DHT22;27407;24.142;-110.310;2023-07-24T01:34:53;33.80;99.90
41722;DHT22;27407;24.142;-110.310;2023-07-24T01:37:21;33.80;99.90
41722;DHT22;27407;24.142;-110.310;2023-07-24T01:39:48;33.70;99.90
41722;DHT22;27407;24.142;-110.310;2023-07-24T01:42:16;33.30;99.90
41722;DHT22;27407;24.142;-110.310;2023-07-24T01:44:43;33.10;99.90
41722;DHT22;27407;24.142;-110.310;2023-07-24T01:47:09;33.20;99.90
41722;DHT22;27407;24.142;-110.310;2023-07-24T01:49:36;33.00;99.90
41722;DHT22;27407;24.142;-110.310;2023-07-24T01:52:03;33.20;99.90
41722;DHT22;27407;24.142;-110.310;2023-07-24T01:54:30;32.90;99.90
41722;DHT22;27407;24.142;-110.310;2023-07-24T01:56:56;32.70;99.90
41722;DHT22;27407;24.142;-110.310;2023-07-24T01:59:23;32.70;99.90
41722;DHT22;27407;24.142;-110.310;2023-07-24T02:01:49;32.80;99.90
41722;DHT22;27407;24.142;-110.310;2023-07-24T02:04:16;32.70;99.90
41722;DHT22;27407;24.142;-110.310;2023-07-24T02:06:43;32.60;99.90
41722;DHT22;27407;24.142;-110.310;2023-07-24T02:09:10;32.60;99.90
41722;DHT22;27407;24.142;-110.310;2023-07-24T02:11:36;32.50;99.90
41722;DHT22;27407;24.142;-110.310;2023-07-24T02:14:03;32.40;99.90
41722;DHT22;27407;24.142;-110.310;2023-07-24T02:16:30;32.20;99.90
41722;DHT22;27407;24.142;-110.310;2023-07-24T02:18:56;32.30;99.90
41722;DHT22;27407;24.142;-110.310;2023-07-24T02:21:23;32.40;99.90
41722;DHT22;27407;24.142;-110.310;2023-07-24T02:23:50;32.30;99.90
41722;DHT22;27407;24.142;-110.310;2023-07-24T02:26:16;32.20;99.90
41722;DHT22;27407;24.142;-110.310;2023-07-24T02:28:43;32.30;99.90
41722;DHT22;27407;24.142;-110.310;2023-07-24T02:31:12;32.20;99.90
41722;DHT22;27407;24.142;-110.310;2023-07-24T02:33:39;32.20;99.90
41722;DHT22;27407;24.142;-110.310;2023-07-24T02:36:05;32.20;99.90
41722;DHT22;27407;24.142;-110.310;2023-07-24T02:38:32;32.00;99.90
41722;DHT22;27407;24.142;-110.310;2023-07-24T02:40:58;31.90;99.90
41722;DHT22;27407;24.142;-110.310;2023-07-24T02:43:25;31.80;99.90
41722;DHT22;27407;24.142;-110.310;2023-07-24T02:45:52;32.00;99.90
41722;DHT22;27407;24.142;-110.310;2023-07-24T02:48:18;31.70;99.90
41722;DHT22;27407;24.142;-110.310;2023-07-24T02:50:48;31.80;99.90
41722;DHT22;27407;24.142;-110.310;2023-07-24T02:53:15;31.70;99.90
41722;DHT22;27407;24.142;-110.310;2023-07-24T02:55:45;31.60;99.90
41722;DHT22;27407;24.142;-110.310;2023-07-24T02:58:13;31.60;99.90
41722;DHT22;27407;24.142;-110.310;2023-07-24T03:00:40;31.50;99.90
41722;DHT22;27407;24.142;-110.310;2023-07-24T03:03:06;31.50;99.90
41722;DHT22;27407;24.142;-110.310;2023-07-24T03:05:36;31.50;99.90
41722;DHT22;27407;24.142;-110.310;2023-07-24T03:08:03;31.40;99.90
41722;DHT22;27407;24.142;-110.310;2023-07-24T03:10:30;31.50;99.90
41722;DHT22;27407;24.142;-110.310;2023-07-24T03:12:56;31.40;99.90
41722;DHT22;27407;24.142;-110.310;2023-07-24T03:15:23;31.30;99.90
41722;DHT22;27407;24.142;-110.310;2023-07-24T03:17:50;31.30;99.90
41722;DHT22;27407;24.142;-110.310;2023-07-24T03:20:18;31.20;99.90
41722;DHT22;27407;24.142;-110.310;2023-07-24T03:22:45;31.20;99.90
41722;DHT22;27407;24.142;-110.310;2023-07-24T03:25:12;31.10;99.90
41722;DHT22;27407;24.142;-110.310;2023-07-24T03:27:40;31.10;99.90
41722;DHT22;27407;24.142;-110.310;2023-07-24T03:30:07;31.10;99.90
41722;DHT22;27407;24.142;-110.310;2023-07-24T03:32:35;31.10;99.90
41722;DHT22;27407;24.142;-110.310;2023-07-24T03:35:01;31.10;99.90
41722;DHT22;27407;24.142;-110.310;2023-07-24T03:37:28;30.90;99.90
41722;DHT22;27407;24.142;-110.310;2023-07-24T03:39:55;31.00;99.90
41722;DHT22;27407;24.142;-110.310;2023-07-24T03:42:26;31.00;99.90
41722;DHT22;27407;24.142;-110.310;2023-07-24T03:44:53;30.90;99.90
41722;DHT22;27407;24.142;-110.310;2023-07-24T03:47:20;31.00;99.90
41722;DHT22;27407;24.142;-110.310;2023-07-24T03:49:46;31.00;99.90
41722;DHT22;27407;24.142;-110.310;2023-07-24T03:52:13;30.90;99.90
41722;DHT22;27407;24.142;-110.310;2023-07-24T03:54:40;30.80;99.90
41722;DHT22;27407;24.142;-110.310;2023-07-24T03:57:08;30.80;99.90
41722;DHT22;27407;24.142;-110.310;2023-07-24T03:59:35;30.80;99.90
41722;DHT22;27407;24.142;-110.310;2023-07-24T04:02:07;30.80;99.90
41722;DHT22;27407;24.142;-110.310;2023-07-24T04:04:34;30.80;99.90
41722;DHT22;27407;24.142;-110.310;2023-07-24T04:07:01;30.80;99.90
41722;DHT22;27407;24.142;-110.310;2023-07-24T04:09:30;30.80;99.90
41722;DHT22;27407;24.142;-110.310;2023-07-24T04:11:56;30.80;99.90
41722;DHT22;27407;24.142;-110.310;2023-07-24T04:14:23;30.80;99.90
41722;DHT22;27407;24.142;-110.310;2023-07-24T04:16:50;30.70;99.90
41722;DHT22;27407;24.142;-110.310;2023-07-24T04:19:17;30.80;99.90
41722;DHT22;27407;24.142;-110.310;2023-07-24T04:21:45;30.80;99.90
41722;DHT22;27407;24.142;-110.310;2023-07-24T04:24:13;30.70;99.90
41722;DHT22;27407;24.142;-110.310;2023-07-24T04:26:40;30.60;99.90
41722;DHT22;27407;24.142;-110.310;2023-07-24T04:29:07;30.70;99.90
41722;DHT22;27407;24.142;-110.310;2023-07-24T04:31:34;30.80;99.90
41722;DHT22;27407;24.142;-110.310;2023-07-24T04:34:00;30.80;99.90
41722;DHT22;27407;24.142;-110.310;2023-07-24T04:36:29;30.80;99.90
41722;DHT22;27407;24.142;-110.310;2023-07-24T04:38:55;30.60;99.90
41722;DHT22;27407;24.142;-110.310;2023-07-24T04:41:25;30.60;99.90
41722;DHT22;27407;24.142;-110.310;2023-07-24T04:43:52;30.60;99.90
41722;DHT22;27407;24.142;-110.310;2023-07-24T04:46:18;30.70;99.90
41722;DHT22;27407;24.142;-110.310;2023-07-24T04:48:45;30.90;99.90
41722;DHT22;27407;24.142;-110.310;2023-07-24T04:51:12;30.80;99.90
41722;DHT22;27407;24.142;-110.310;2023-07-24T04:53:38;30.60;99.90
41722;DHT22;27407;24.142;-110.310;2023-07-24T04:56:05;30.60;99.90
41722;DHT22;27407;24.142;-110.310;2023-07-24T04:58:32;30.60;99.90
41722;DHT22;27407;24.142;-110.310;2023-07-24T05:01:05;30.60;99.90
41722;DHT22;27407;24.142;-110.310;2023-07-24T05:03:32;30.60;99.90
41722;DHT22;27407;24.142;-110.310;2023-07-24T05:05:59;30.50;99.90
41722;DHT22;27407;24.142;-110.310;2023-07-24T05:08:25;30.60;99.90
41722;DHT22;27407;24.142;-110.310;2023-07-24T05:10:59;30.60;99.90
41722;DHT22;27407;24.142;-110.310;2023-07-24T05:13:28;30.60;99.90
41722;DHT22;27407;24.142;-110.310;2023-07-24T05:15:55;30.50;99.90
41722;DHT22;27407;24.142;-110.310;2023-07-24T05:18:21;30.50;99.90
41722;DHT22;27407;24.142;-110.310;2023-07-24T05:20:49;30.50;99.90
41722;DHT22;27407;24.142;-110.310;2023-07-24T05:23:18;30.60;99.90
41722;DHT22;27407;24.142;-110.310;2023-07-24T05:25:45;30.40;99.90
41722;DHT22;27407;24.142;-110.310;2023-07-24T05:28:12;30.40;99.90
41722;DHT22;27407;24.142;-110.310;2023-07-24T05:30:38;30.40;99.90
41722;DHT22;27407;24.142;-110.310;2023-07-24T05:33:05;30.40;99.90
41722;DHT22;27407;24.142;-110.310;2023-07-24T05:35:32;30.30;99.90
41722;DHT22;27407;24.142;-110.310;2023-07-24T05:37:59;30.20;99.90
41722;DHT22;27407;24.142;-110.310;2023-07-24T05:40:25;30.20;99.90
41722;DHT22;27407;24.142;-110.310;2023-07-24T05:42:52;30.20;99.90
41722;DHT22;27407;24.142;-110.310;2023-07-24T05:45:18;30.20;99.90
41722;DHT22;27407;24.142;-110.310;2023-07-24T05:47:45;30.10;99.90
41722;DHT22;27407;24.142;-110.310;2023-07-24T05:50:12;30.00;99.90
41722;DHT22;27407;24.142;-110.310;2023-07-24T05:52:40;30.10;99.90
41722;DHT22;27407;24.142;-110.310;2023-07-24T05:55:07;30.10;99.90
41722;DHT22;27407;24.142;-110.310;2023-07-24T05:57:33;30.10;99.90
41722;DHT22;27407;24.142;-110.310;2023-07-24T06:00:00;30.10;99.90
41722;DHT22;27407;24.142;-110.310;2023-07-24T06:02:27;30.00;99.90
41722;DHT22;27407;24.142;-110.310;2023-07-24T06:04:53;29.90;99.90
41722;DHT22;27407;24.142;-110.310;2023-07-24T06:07:20;29.90;99.90
41722;DHT22;27407;24.142;-110.310;2023-07-24T06:09:46;29.90;99.90
41722;DHT22;27407;24.142;-110.310;2023-07-24T06:12:13;29.80;99.90
41722;DHT22;27407;24.142;-110.310;2023-07-24T06:14:40;29.80;99.90
41722;DHT22;27407;24.142;-110.310;2023-07-24T06:17:06;29.80;99.90
41722;DHT22;27407;24.142;-110.310;2023-07-24T06:19:33;29.80;99.90
41722;DHT22;27407;24.142;-110.310;2023-07-24T06:22:00;29.80;99.90
41722;DHT22;27407;24.142;-110.310;2023-07-24T06:24:27;29.80;99.90
41722;DHT22;27407;24.142;-110.310;2023-07-24T06:26:53;29.80;99.90
41722;DHT22;27407;24.142;-110.310;2023-07-24T06:29:20;29.90;99.90
41722;DHT22;27407;24.142;-110.310;2023-07-24T06:31:48;29.80;99.90
41722;DHT22;27407;24.142;-110.310;2023-07-24T06:34:15;29.80;99.90
41722;DHT22;27407;24.142;-110.310;2023-07-24T06:36:42;29.80;99.90
41722;DHT22;27407;24.142;-110.310;2023-07-24T06:39:09;29.90;99.90
41722;DHT22;27407;24.142;-110.310;2023-07-24T06:41:43;29.80;99.90
41722;DHT22;27407;24.142;-110.310;2023-07-24T06:44:09;29.80;99.90
41722;DHT22;27407;24.142;-110.310;2023-07-24T06:46:36;29.80;99.90
41722;DHT22;27407;24.142;-110.310;2023-07-24T06:49:02;29.70;99.90
41722;DHT22;27407;24.142;-110.310;2023-07-24T06:51:29;29.70;99.90
41722;DHT22;27407;24.142;-110.310;2023-07-24T06:53:56;29.70;99.90
41722;DHT22;27407;24.142;-110.310;2023-07-24T06:56:22;29.80;99.90
41722;DHT22;27407;24.142;-110.310;2023-07-24T06:58:49;29.80;99.90
41722;DHT22;27407;24.142;-110.310;2023-07-24T07:01:16;29.80;99.90
41722;DHT22;27407;24.142;-110.310;2023-07-24T07:03:42;29.70;99.90
41722;DHT22;27407;24.142;-110.310;2023-07-24T07:06:09;29.70;99.90
41722;DHT22;27407;24.142;-110.310;2023-07-24T07:08:37;29.70;99.90
41722;DHT22;27407;24.142;-110.310;2023-07-24T07:11:04;29.80;99.90
41722;DHT22;27407;24.142;-110.310;2023-07-24T07:13:31;29.70;99.90
41722;DHT22;27407;24.142;-110.310;2023-07-24T07:15:57;29.70;99.90
41722;DHT22;27407;24.142;-110.310;2023-07-24T07:18:24;29.80;99.90
41722;DHT22;27407;24.142;-110.310;2023-07-24T07:20:52;29.80;99.90
41722;DHT22;27407;24.142;-110.310;2023-07-24T07:23:20;29.80;99.90
41722;DHT22;27407;24.142;-110.310;2023-07-24T07:25:48;29.70;99.90
41722;DHT22;27407;24.142;-110.310;2023-07-24T07:28:16;29.70;99.90
41722;DHT22;27407;24.142;-110.310;2023-07-24T07:30:43;29.70;99.90
41722;DHT22;27407;24.142;-110.310;2023-07-24T07:33:10;29.70;99.90
41722;DHT22;27407;24.142;-110.310;2023-07-24T07:35:37;29.70;99.90
41722;DHT22;27407;24.142;-110.310;2023-07-24T07:38:10;29.80;99.90
41722;DHT22;27407;24.142;-110.310;2023-07-24T07:40:37;29.70;99.90
41722;DHT22;27407;24.142;-110.310;2023-07-24T07:43:05;29.70;99.90
41722;DHT22;27407;24.142;-110.310;2023-07-24T07:45:32;29.70;99.90
41722;DHT22;27407;24.142;-110.310;2023-07-24T07:47:59;29.70;99.90
41722;DHT22;27407;24.142;-110.310;2023-07-24T07:50:25;29.80;99.90
41722;DHT22;27407;24.142;-110.310;2023-07-24T07:52:52;29.80;99.90
41722;DHT22;27407;24.142;-110.310;2023-07-24T07:55:19;29.70;99.90
41722;DHT22;27407;24.142;-110.310;2023-07-24T07:57:46;29.60;99.90
41722;DHT22;27407;24.142;-110.310;2023-07-24T08:00:13;29.50;99.90
41722;DHT22;27407;24.142;-110.310;2023-07-24T08:02:40;29.50;99.90
41722;DHT22;27407;24.142;-110.310;2023-07-24T08:05:10;29.50;99.90
41722;DHT22;27407;24.142;-110.310;2023-07-24T08:07:37;29.50;99.90
41722;DHT22;27407;24.142;-110.310;2023-07-24T08:10:04;29.50;99.90
41722;DHT22;27407;24.142;-110.310;2023-07-24T08:12:32;29.50;99.90
41722;DHT22;27407;24.142;-110.310;2023-07-24T08:15:02;29.60;99.90
41722;DHT22;27407;24.142;-110.310;2023-07-24T08:17:28;29.50;99.90
41722;DHT22;27407;24.142;-110.310;2023-07-24T08:19:56;29.40;99.90
41722;DHT22;27407;24.142;-110.310;2023-07-24T08:22:22;29.40;99.90
41722;DHT22;27407;24.142;-110.310;2023-07-24T08:24:49;29.40;99.90
41722;DHT22;27407;24.142;-110.310;2023-07-24T08:27:17;29.50;99.90
41722;DHT22;27407;24.142;-110.310;2023-07-24T08:29:44;29.50;99.90
41722;DHT22;27407;24.142;-110.310;2023-07-24T08:32:10;29.50;99.90
41722;DHT22;27407;24.142;-110.310;2023-07-24T08:34:37;29.50;99.90
41722;DHT22;27407;24.142;-110.310;2023-07-24T08:37:04;29.50;99.90
41722;DHT22;27407;24.142;-110.310;2023-07-24T08:39:31;29.50;99.90
41722;DHT22;27407;24.142;-110.310;2023-07-24T08:41:58;29.50;99.90
41722;DHT22;27407;24.142;-110.310;2023-07-24T08:44:25;29.60;99.90
41722;DHT22;27407;24.142;-110.310;2023-07-24T08:46:56;29.50;99.90
41722;DHT22;27407;24.142;-110.310;2023-07-24T08:49:23;29.30;99.90
41722;DHT22;27407;24.142;-110.310;2023-07-24T08:51:49;29.40;99.90
41722;DHT22;27407;24.142;-110.310;2023-07-24T08:54:17;29.30;99.90
41722;DHT22;27407;24.142;-110.310;2023-07-24T08:56:45;29.20;99.90
41722;DHT22;27407;24.142;-110.310;2023-07-24T08:59:15;29.30;99.90
41722;DHT22;27407;24.142;-110.310;2023-07-24T09:01:43;29.20;99.90
41722;DHT22;27407;24.142;-110.310;2023-07-24T09:04:10;29.20;99.90
41722;DHT22;27407;24.142;-110.310;2023-07-24T09:06:37;29.20;99.90
41722;DHT22;27407;24.142;-110.310;2023-07-24T09:09:15;29.20;99.90
41722;DHT22;27407;24.142;-110.310;2023-07-24T09:11:54;29.20;99.90
41722;DHT22;27407;24.142;-110.310;2023-07-24T09:14:28;29.30;99.90
41722;DHT22;27407;24.142;-110.310;2023-07-24T09:19:30;29.20;99.90
41722;DHT22;27407;24.142;-110.310;2023-07-24T09:22:11;29.20;99.90
41722;DHT22;27407;24.142;-110.310;2023-07-24T09:24:48;29.50;99.90
41722;DHT22;27407;24.142;-110.310;2023-07-24T09:27:14;29.30;99.90
41722;DHT22;27407;24.142;-110.310;2023-07-24T09:29:42;29.20;99.90
41722;DHT22;27407;24.142;-110.310;2023-07-24T09:32:19;29.20;99.90
41722;DHT22;27407;24.142;-110.310;2023-07-24T09:34:46;29.20;99.90
41722;DHT22;27407;24.142;-110.310;2023-07-24T09:37:26;29.20;99.90
41722;DHT22;27407;24.142;-110.310;2023-07-24T09:39:53;29.20;99.90
41722;DHT22;27407;24.142;-110.310;2023-07-24T09:42:40;29.30;99.90
41722;DHT22;27407;24.142;-110.310;2023-07-24T09:45:07;29.30;99.90
41722;DHT22;27407;24.142;-110.310;2023-07-24T09:47:35;29.30;99.90
41722;DHT22;27407;24.142;-110.310;2023-07-24T09:50:05;29.30;99.90
41722;DHT22;27407;24.142;-110.310;2023-07-24T09:52:32;29.30;99.90
41722;DHT22;27407;24.142;-110.310;2023-07-24T09:55:13;29.30;99.90
41722;DHT22;27407;24.142;-110.310;2023-07-24T09:57:42;29.20;99.90
41722;DHT22;27407;24.142;-110.310;2023-07-24T10:00:12;29.20;99.90
41722;DHT22;27407;24.142;-110.310;2023-07-24T10:02:39;29.20;99.90
41722;DHT22;27407;24.142;-110.310;2023-07-24T10:05:07;29.30;99.90
41722;DHT22;27407;24.142;-110.310;2023-07-24T10:07:33;29.30;99.90
41722;DHT22;27407;24.142;-110.310;2023-07-24T10:10:01;29.30;99.90
41722;DHT22;27407;24.142;-110.310;2023-07-24T10:12:29;29.30;99.90
41722;DHT22;27407;24.142;-110.310;2023-07-24T10:14:57;29.30;99.90
41722;DHT22;27407;24.142;-110.310;2023-07-24T10:17:40;29.40;99.90
41722;DHT22;27407;24.142;-110.310;2023-07-24T10:20:12;29.50;99.90
41722;DHT22;27407;24.142;-110.310;2023-07-24T10:22:41;29.60;99.90
41722;DHT22;27407;24.142;-110.310;2023-07-24T10:25:09;29.60;99.90
41722;DHT22;27407;24.142;-110.310;2023-07-24T10:27:41;29.50;99.90
41722;DHT22;27407;24.142;-110.310;2023-07-24T10:30:09;29.50;99.90
41722;DHT22;27407;24.142;-110.310;2023-07-24T10:32:46;29.50;99.90
41722;DHT22;27407;24.142;-110.310;2023-07-24T10:35:13;29.40;99.90
41722;DHT22;27407;24.142;-110.310;2023-07-24T10:37:40;29.40;99.90
41722;DHT22;27407;24.142;-110.310;2023-07-24T10:40:07;29.30;99.90
41722;DHT22;27407;24.142;-110.310;2023-07-24T10:42:44;29.30;99.90
41722;DHT22;27407;24.142;-110.310;2023-07-24T10:45:11;29.20;99.90
41722;DHT22;27407;24.142;-110.310;2023-07-24T10:47:38;29.20;99.90
41722;DHT22;27407;24.142;-110.310;2023-07-24T10:50:05;29.20;99.90
41722;DHT22;27407;24.142;-110.310;2023-07-24T10:52:32;29.20;99.90
41722;DHT22;27407;24.142;-110.310;2023-07-24T10:55:03;29.20;99.90
41722;DHT22;27407;24.142;-110.310;2023-07-24T10:57:30;29.20;99.90
41722;DHT22;27407;24.142;-110.310;2023-07-24T10:59:58;29.10;99.90
41722;DHT22;27407;24.142;-110.310;2023-07-24T11:02:25;29.10;99.90
41722;DHT22;27407;24.142;-110.310;2023-07-24T11:04:52;29.20;99.90
41722;DHT22;27407;24.142;-110.310;2023-07-24T11:07:19;29.30;99.90
41722;DHT22;27407;24.142;-110.310;2023-07-24T11:09:46;29.40;99.90
41722;DHT22;27407;24.142;-110.310;2023-07-24T11:12:15;29.40;99.90
41722;DHT22;27407;24.142;-110.310;2023-07-24T11:14:52;29.40;99.90
41722;DHT22;27407;24.142;-110.310;2023-07-24T11:17:34;29.50;99.90
41722;DHT22;27407;24.142;-110.310;2023-07-24T11:20:10;29.50;99.90
41722;DHT22;27407;24.142;-110.310;2023-07-24T11:22:39;29.60;99.90
41722;DHT22;27407;24.142;-110.310;2023-07-24T11:25:06;29.60;99.90
41722;DHT22;27407;24.142;-110.310;2023-07-24T11:27:37;29.70;99.90
41722;DHT22;27407;24.142;-110.310;2023-07-24T11:30:04;29.70;99.90
41722;DHT22;27407;24.142;-110.310;2023-07-24T11:32:31;29.60;99.90
41722;DHT22;27407;24.142;-110.310;2023-07-24T11:34:57;29.60;99.90
41722;DHT22;27407;24.142;-110.310;2023-07-24T11:37:27;29.70;99.90
41722;DHT22;27407;24.142;-110.310;2023-07-24T11:40:02;29.70;99.90
41722;DHT22;27407;24.142;-110.310;2023-07-24T11:42:31;29.70;99.90
41722;DHT22;27407;24.142;-110.310;2023-07-24T11:45:01;29.70;99.90
41722;DHT22;27407;24.142;-110.310;2023-07-24T11:47:28;29.70;99.90
41722;DHT22;27407;24.142;-110.310;2023-07-24T11:50:01;29.80;99.90
41722;DHT22;27407;24.142;-110.310;2023-07-24T11:52:45;29.70;99.90
41722;DHT22;27407;24.142;-110.310;2023-07-24T11:55:13;29.80;99.90
41722;DHT22;27407;24.142;-110.310;2023-07-24T11:57:40;29.80;99.90
41722;DHT22;27407;24.142;-110.310;2023-07-24T12:00:19;29.90;99.90
41722;DHT22;27407;24.142;-110.310;2023-07-24T12:02:46;29.90;99.90
41722;DHT22;27407;24.142;-110.310;2023-07-24T12:05:13;29.80;99.90
41722;DHT22;27407;24.142;-110.310;2023-07-24T12:07:41;29.90;99.90
41722;DHT22;27407;24.142;-110.310;2023-07-24T12:10:09;29.90;99.90
41722;DHT22;27407;24.142;-110.310;2023-07-24T12:12:46;29.80;99.90
41722;DHT22;27407;24.142;-110.310;2023-07-24T12:15:14;29.70;99.90
41722;DHT22;27407;24.142;-110.310;2023-07-24T12:17:41;29.70;99.90
41722;DHT22;27407;24.142;-110.310;2023-07-24T12:20:09;29.80;99.90
41722;DHT22;27407;24.142;-110.310;2023-07-24T12:22:37;29.90;99.90
41722;DHT22;27407;24.142;-110.310;2023-07-24T12:25:04;29.90;99.90
41722;DHT22;27407;24.142;-110.310;2023-07-24T12:27:31;29.90;99.90
41722;DHT22;27407;24.142;-110.310;2023-07-24T12:29:59;29.90;99.90
41722;DHT22;27407;24.142;-110.310;2023-07-24T12:32:26;29.80;99.90
41722;DHT22;27407;24.142;-110.310;2023-07-24T12:34:53;29.70;99.90
41722;DHT22;27407;24.142;-110.310;2023-07-24T12:37:20;29.70;99.90
41722;DHT22;27407;24.142;-110.310;2023-07-24T12:39:47;29.70;99.90
41722;DHT22;27407;24.142;-110.310;2023-07-24T12:42:15;29.80;99.90
41722;DHT22;27407;24.142;-110.310;2023-07-24T12:44:42;29.80;99.90
41722;DHT22;27407;24.142;-110.310;2023-07-24T12:47:11;29.90;99.90
41722;DHT22;27407;24.142;-110.310;2023-07-24T12:49:38;29.90;99.90
41722;DHT22;27407;24.142;-110.310;2023-07-24T12:52:05;29.80;99.90
41722;DHT22;27407;24.142;-110.310;2023-07-24T12:54:32;29.70;99.90
41722;DHT22;27407;24.142;-110.310;2023-07-24T12:56:58;29.70;99.90
41722;DHT22;27407;24.142;-110.310;2023-07-24T12:59:25;29.80;99.90
41722;DHT22;27407;24.142;-110.310;2023-07-24T13:01:52;29.80;99.90
41722;DHT22;27407;24.142;-110.310;2023-07-24T13:04:19;29.80;99.90
41722;DHT22;27407;24.142;-110.310;2023-07-24T13:06:46;29.90;99.90
41722;DHT22;27407;24.142;-110.310;2023-07-24T13:09:13;29.90;99.90
41722;DHT22;27407;24.142;-110.310;2023-07-24T13:11:39;29.90;99.90
41722;DHT22;27407;24.142;-110.310;2023-07-24T13:14:06;29.90;99.90
41722;DHT22;27407;24.142;-110.310;2023-07-24T13:16:33;29.90;99.90
41722;DHT22;27407;24.142;-110.310;2023-07-24T13:18:59;29.80;99.90
41722;DHT22;27407;24.142;-110.310;2023-07-24T13:21:26;29.80;99.90
41722;DHT22;27407;24.142;-110.310;2023-07-24T13:23:52;29.70;99.90
41722;DHT22;27407;24.142;-110.310;2023-07-24T13:26:19;29.60;99.90
41722;DHT22;27407;24.142;-110.310;2023-07-24T13:28:46;29.60;99.90
41722;DHT22;27407;24.142;-110.310;2023-07-24T13:31:20;29.60;99.90
41722;DHT22;27407;24.142;-110.310;2023-07-24T13:33:48;29.60;99.90
41722;DHT22;27407;24.142;-110.310;2023-07-24T13:36:14;29.50;99.90
41722;DHT22;27407;24.142;-110.310;2023-07-24T13:38:41;29.50;99.90
41722;DHT22;27407;24.142;-110.310;2023-07-24T13:41:11;29.40;99.90
41722;DHT22;27407;24.142;-110.310;2023-07-24T13:43:37;29.50;99.90
41722;DHT22;27407;24.142;-110.310;2023-07-24T13:46:04;29.50;99.90
41722;DHT22;27407;24.142;-110.310;2023-07-24T13:48:31;29.50;99.90
41722;DHT22;27407;24.142;-110.310;2023-07-24T13:50:57;29.50;99.90
41722;DHT22;27407;24.142;-110.310;2023-07-24T13:53:24;29.60;99.90
41722;DHT22;27407;24.142;-110.310;2023-07-24T13:55:51;29.70;99.90
41722;DHT22;27407;24.142;-110.310;2023-07-24T13:58:17;29.70;99.90
41722;DHT22;27407;24.142;-110.310;2023-07-24T14:00:44;29.90;99.90
41722;DHT22;27407;24.142;-110.310;2023-07-24T14:03:11;29.90;99.90
41722;DHT22;27407;24.142;-110.310;2023-07-24T14:05:38;29.90;99.90
41722;DHT22;27407;24.142;-110.310;2023-07-24T14:08:05;29.90;99.90
41722;DHT22;27407;24.142;-110.310;2023-07-24T14:10:31;29.90;99.90
41722;DHT22;27407;24.142;-110.310;2023-07-24T14:12:58;29.90;99.90
41722;DHT22;27407;24.142;-110.310;2023-07-24T14:15:25;30.00;99.90
41722;DHT22;27407;24.142;-110.310;2023-07-24T14:17:54;30.00;99.90
41722;DHT22;27407;24.142;-110.310;2023-07-24T14:20:21;30.00;99.90
41722;DHT22;27407;24.142;-110.310;2023-07-24T14:22:47;30.00;99.90
41722;DHT22;27407;24.142;-110.310;2023-07-24T14:25:14;30.10;99.90
41722;DHT22;27407;24.142;-110.310;2023-07-24T14:27:41;30.30;99.90
41722;DHT22;27407;24.142;-110.310;2023-07-24T14:30:11;30.30;99.90
41722;DHT22;27407;24.142;-110.310;2023-07-24T14:32:37;30.50;99.90
41722;DHT22;27407;24.142;-110.310;2023-07-24T14:35:04;30.50;99.90
41722;DHT22;27407;24.142;-110.310;2023-07-24T14:37:31;30.60;99.90
41722;DHT22;27407;24.142;-110.310;2023-07-24T14:39:58;30.60;99.90
41722;DHT22;27407;24.142;-110.310;2023-07-24T14:42:25;30.70;99.90
41722;DHT22;27407;24.142;-110.310;2023-07-24T14:44:54;30.80;99.90
41722;DHT22;27407;24.142;-110.310;2023-07-24T14:47:21;30.90;99.90
41722;DHT22;27407;24.142;-110.310;2023-07-24T14:49:47;31.00;99.90
41722;DHT22;27407;24.142;-110.310;2023-07-24T14:52:14;31.00;99.90
41722;DHT22;27407;24.142;-110.310;2023-07-24T14:54:41;31.10;99.90
41722;DHT22;27407;24.142;-110.310;2023-07-24T14:57:07;31.10;99.90
41722;DHT22;27407;24.142;-110.310;2023-07-24T14:59:37;31.30;99.90